Toncontín International Airport
MHTG : now visible

Airfield :











YOU CAN JOIN US ON...

 
LOGIN :

Register | Disclaimer

   EN    FR    IT 

 









Legend :    VFR   Marginal VFR   IFR   Intensive IFR   Very Intensive IFR
Visi :
Ceiling :
>= 8 km
>= 3000ft
5 to 8 km
1000 to 3000 ft
1500m to 5 km
500 to 1000 ft
800 to 1500m
200 to 500 ft
< 800m
< 200 ft
Symbols :   Thunderstorms  Fog  Heavy snow  Heavy precipitations  Wind > 20 kt






- Airport Elevation : 3294 ft
- IATA code : TGU


MHTG - Toncontín International

CURRENT METAR :
  • 141700Z 00000KT 9999 BKN022TCU SCT250 24/18 Q1019 A3009 NOSIG

EXPIRED METARs :
  • 141600Z 01008KT 8000 VCSH FEW010 BKN022TCU 22/18 Q1020 A3012 NOSIG
  • 141500Z 36008KT 8000 4000SW FEW006 BKN020 21/18 Q1010 A3012 NOSIG

TAF TAF MHTG
Valid from the 14 at 18:00 until the 15 at 18:00 UTC


141630 1418/1518 03006KT 7000 VCSH SCT026 SCT028TCU TX26/1419Z TN18/1512Z
BECMG 1421/1423 17006KT 5000 RA BKN026TCU SCT028CB
BECMG 1501/1503 00000KT 8000 VCSH FEW008 SCT026
BECMG 1510/1512 4000 BR FEW005 SCT022 BKN080
BECMG 1514/1516 02008KT 9999 NSW SCT026 SCT080



MET'MAP, your aeronautical weather chart ! - Copyright ORBIFLY December 2007 - Disclaimer

ORBIFLY MET'MAP TEAM :

Programming & Development : Alexandra Zaïnal
Concept & Development : Baudouin d'Aumeries
Co-Development & Prog : Marc-Olivier Méhu
Technical & hardware support : Manuel Goepfert

Contact : metmap@orbifly.com




SOURCES & CREDITS :

   NOAA       Earth
Advisory